Gorunna, Ireland
Current Conditions -  °F | °C
As of 4:00 AM on Thursday 29 Jan 2015 (Local Time) from EINN Reporting Station
Scattered Clouds Scattered Clouds  
Wind Chill: 28°   Ceiling: Unl
Heat Index: 39°   Visibility: 6mi
Dew Point: 34°   Wind: 25mph
Humidity: 81%   Direction: 270°W
Pressure: 29.35"   Gusts: NA
Location:  53.25°N, 9.68°W
Report Text: EINN 290400Z 27022KT 9999 SCT018CB SCT050 04/01 Q0994 NOSIG
Loading
Personal Weather Stations






























Interactive Weather Map New forecast layout! Learn more

10-Day Weather Forecast

Advertisements
Track Severe Weather on mobile